createdAt,value
2019-02-17T00:01:06.810Z,99.99
2019-02-17T00:02:16.729Z,99.99
2019-02-17T00:03:26.703Z,99.99
2019-02-17T00:04:36.625Z,99.99
2019-02-17T00:05:46.548Z,99.99
2019-02-17T00:06:56.518Z,99.99
2019-02-17T00:08:06.436Z,99.99
2019-02-17T00:09:16.352Z,99.99
2019-02-17T00:10:26.281Z,99.99
2019-02-17T00:11:36.013Z,99.99
2019-02-17T00:12:45.927Z,99.99
2019-02-17T00:13:55.841Z,99.99
2019-02-17T00:15:05.865Z,99.99
2019-02-17T00:16:15.792Z,99.99
2019-02-17T00:17:25.720Z,99.99
2019-02-17T00:18:35.667Z,99.99
2019-02-17T00:19:45.590Z,99.99
2019-02-17T00:20:55.610Z,99.99
2019-02-17T00:22:05.526Z,99.99
2019-02-17T00:23:15.439Z,99.99
2019-02-17T00:24:25.360Z,99.99
2019-02-17T00:25:35.271Z,99.99
2019-02-17T00:26:45.196Z,99.99
2019-02-17T00:27:55.116Z,99.99
2019-02-17T00:29:05.046Z,99.99
2019-02-17T00:30:14.967Z,99.99
2019-02-17T00:31:24.885Z,99.99
2019-02-17T00:32:34.801Z,99.99
2019-02-17T00:33:44.720Z,99.99
2019-02-17T00:34:54.649Z,99.99
2019-02-17T00:36:04.570Z,99.99
2019-02-17T00:37:14.489Z,99.99
2019-02-17T00:38:24.421Z,99.99
2019-02-17T00:39:34.339Z,99.99
2019-02-17T00:40:44.266Z,99.99
2019-02-17T00:41:54.189Z,99.99
2019-02-17T00:43:04.131Z,99.99
2019-02-17T00:44:14.152Z,99.99
2019-02-17T00:45:24.135Z,99.99
2019-02-17T00:46:34.048Z,99.99
2019-02-17T00:47:43.975Z,99.99
2019-02-17T00:48:53.909Z,99.99
2019-02-17T00:50:03.880Z,99.99
2019-02-17T00:51:13.799Z,99.99
2019-02-17T00:52:23.720Z,99.99
2019-02-17T00:53:33.637Z,99.99
2019-02-17T00:54:43.560Z,99.99
2019-02-17T00:55:53.579Z,99.99
2019-02-17T00:57:03.498Z,99.99
2019-02-17T00:58:13.428Z,99.99
2019-02-17T00:59:23.345Z,99.99
2019-02-17T01:00:33.292Z,99.99
2019-02-17T01:01:43.268Z,99.99
2019-02-17T01:02:53.184Z,99.99
2019-02-17T01:04:03.105Z,99.99
2019-02-17T01:05:13.024Z,99.99
2019-02-17T01:06:22.772Z,99.99
2019-02-17T01:07:32.794Z,99.99
2019-02-17T01:08:42.475Z,99.99
2019-02-17T01:09:52.398Z,99.99
2019-02-17T01:11:02.320Z,99.99
2019-02-17T01:12:12.243Z,99.99
2019-02-17T01:13:22.264Z,99.99
2019-02-17T01:14:32.180Z,99.99
2019-02-17T01:15:42.102Z,99.99
2019-02-17T01:16:52.029Z,99.99
2019-02-17T01:18:01.958Z,99.99
2019-02-17T01:19:11.733Z,99.99
2019-02-17T01:20:21.655Z,99.99
2019-02-17T01:21:31.576Z,99.99
2019-02-17T01:22:41.494Z,99.99
2019-02-17T01:23:51.422Z,99.99
2019-02-17T01:25:01.091Z,99.99
2019-02-17T01:26:11.023Z,99.99
2019-02-17T01:27:20.959Z,99.99
2019-02-17T01:28:30.883Z,99.99
2019-02-17T01:29:40.812Z,99.99
2019-02-17T01:30:50.480Z,99.99
2019-02-17T01:32:00.398Z,99.99
2019-02-17T01:33:10.315Z,99.99
2019-02-17T01:34:20.239Z,99.99
2019-02-17T01:35:29.915Z,99.99
2019-02-17T01:36:39.587Z,99.99
2019-02-17T01:37:49.507Z,99.99
2019-02-17T01:39:01.140Z,99.99
2019-02-17T01:40:11.062Z,99.99
2019-02-17T01:41:20.982Z,99.99
2019-02-17T01:42:30.999Z,99.99
2019-02-17T01:43:40.924Z,99.99
2019-02-17T01:44:50.853Z,99.99
2019-02-17T01:46:00.768Z,99.99
2019-02-17T01:47:10.686Z,99.99
2019-02-17T01:48:20.709Z,99.99
2019-02-17T01:49:30.627Z,99.99
2019-02-17T01:50:40.300Z,99.99
2019-02-17T01:51:50.215Z,99.99
2019-02-17T01:53:00.154Z,99.99
2019-02-17T01:54:10.187Z,99.99
2019-02-17T01:55:20.166Z,99.99
2019-02-17T01:56:30.165Z,99.99
2019-02-17T01:57:40.152Z,99.99
2019-02-17T01:58:50.142Z,99.99
2019-02-17T02:00:00.368Z,99.99
2019-02-17T02:01:10.401Z,99.99
2019-02-17T02:02:22.455Z,99.99
2019-02-17T02:03:32.443Z,99.99
2019-02-17T02:04:42.395Z,99.99
2019-02-17T02:05:52.444Z,99.99
2019-02-17T02:07:02.413Z,99.99
2019-02-17T02:08:12.369Z,99.99
2019-02-17T02:09:22.340Z,99.99
2019-02-17T02:10:32.313Z,99.99
2019-02-17T02:11:42.364Z,99.99
2019-02-17T02:12:52.044Z,99.99
2019-02-17T02:14:02.003Z,99.99
2019-02-17T02:15:14.042Z,99.99
2019-02-17T02:16:23.985Z,99.99
2019-02-17T02:17:34.089Z,99.99
2019-02-17T02:18:44.094Z,99.99
2019-02-17T02:19:54.026Z,99.99
2019-02-17T02:21:03.943Z,99.99
2019-02-17T02:22:13.858Z,99.99
2019-02-17T02:23:23.891Z,99.99
2019-02-17T02:24:33.813Z,99.99
2019-02-17T02:25:43.799Z,99.99
2019-02-17T02:26:53.715Z,99.99
2019-02-17T02:28:03.641Z,99.99
2019-02-17T02:29:13.620Z,99.99
2019-02-17T02:30:23.551Z,99.99
2019-02-17T02:31:33.527Z,99.99
2019-02-17T02:32:43.520Z,99.99
2019-02-17T02:33:53.443Z,99.99
2019-02-17T02:35:03.464Z,99.99
2019-02-17T02:36:13.133Z,99.99
2019-02-17T02:37:23.063Z,99.99
2019-02-17T02:38:32.749Z,99.99
2019-02-17T02:39:42.423Z,99.99
2019-02-17T02:40:52.349Z,99.99
2019-02-17T02:42:02.288Z,99.99
2019-02-17T02:43:12.210Z,99.99
2019-02-17T02:44:22.148Z,99.99
2019-02-17T02:45:32.079Z,99.99
2019-02-17T02:46:42.017Z,99.99
2019-02-17T02:47:51.954Z,99.99
2019-02-17T02:49:01.881Z,99.99
2019-02-17T02:50:11.809Z,99.99
2019-02-17T02:51:21.837Z,99.99
2019-02-17T02:52:31.793Z,99.99
2019-02-17T02:53:41.727Z,99.99
2019-02-17T02:54:51.659Z,99.99
2019-02-17T02:56:01.345Z,99.99
2019-02-17T02:57:11.265Z,99.99
2019-02-17T02:58:21.192Z,99.99
2019-02-17T02:59:31.189Z,99.99
2019-02-17T03:00:41.115Z,99.99
2019-02-17T03:01:51.040Z,99.99
2019-02-17T03:03:00.968Z,99.99
2019-02-17T03:04:11.019Z,99.99
2019-02-17T03:05:20.965Z,99.99
2019-02-17T03:06:30.886Z,99.99
2019-02-17T03:07:40.832Z,99.99
2019-02-17T03:08:50.758Z,99.99
2019-02-17T03:10:00.787Z,99.99
2019-02-17T03:11:10.729Z,99.99
2019-02-17T03:12:20.655Z,99.99
2019-02-17T03:13:30.589Z,99.99
2019-02-17T03:14:40.519Z,99.99
2019-02-17T03:15:50.443Z,99.99
2019-02-17T03:17:03.134Z,99.99
2019-02-17T03:18:13.067Z,99.99
2019-02-17T03:19:22.985Z,99.99
2019-02-17T03:20:32.913Z,99.99
2019-02-17T03:21:42.889Z,99.99
2019-02-17T03:22:52.576Z,99.99
2019-02-17T03:24:02.508Z,99.99
2019-02-17T03:25:12.516Z,99.99
2019-02-17T03:26:22.450Z,99.99
2019-02-17T03:27:32.367Z,99.99
2019-02-17T03:28:42.286Z,99.99
2019-02-17T03:30:03.991Z,99.99
2019-02-17T03:31:14.372Z,99.99
2019-02-17T03:32:24.340Z,99.99
2019-02-17T03:33:34.288Z,99.99
2019-02-17T03:34:44.231Z,99.99
2019-02-17T03:35:54.153Z,99.99
2019-02-17T03:37:04.080Z,99.99
2019-02-17T03:38:13.860Z,99.99
2019-02-17T03:39:23.528Z,99.99
2019-02-17T03:40:33.446Z,99.99
2019-02-17T03:41:43.377Z,99.99
2019-02-17T03:42:53.312Z,99.99
2019-02-17T03:44:03.281Z,99.99
2019-02-17T03:45:13.222Z,99.99
2019-02-17T03:46:23.147Z,99.99
2019-02-17T03:47:33.065Z,99.99
2019-02-17T03:48:42.993Z,99.99
2019-02-17T03:49:53.017Z,99.99
2019-02-17T03:51:03.117Z,99.99
2019-02-17T03:52:13.045Z,99.99
2019-02-17T03:53:22.973Z,99.99
2019-02-17T03:54:32.642Z,99.99
2019-02-17T03:55:42.666Z,99.99
2019-02-17T03:56:52.585Z,99.99
2019-02-17T03:58:02.258Z,99.99
2019-02-17T03:59:12.215Z,99.99
2019-02-17T04:00:22.139Z,99.99
2019-02-17T04:01:32.122Z,99.99
2019-02-17T04:02:41.793Z,99.99
2019-02-17T04:03:51.816Z,99.99
2019-02-17T04:05:01.746Z,99.99
2019-02-17T04:06:11.666Z,99.99
2019-02-17T04:07:21.704Z,99.99
2019-02-17T04:08:31.650Z,99.99
2019-02-17T04:09:41.574Z,99.99
2019-02-17T04:10:51.503Z,99.99
2019-02-17T04:12:01.415Z,99.99
2019-02-17T04:13:11.386Z,99.99
2019-02-17T04:14:21.311Z,99.99
2019-02-17T04:15:31.233Z,99.99
2019-02-17T04:16:41.159Z,99.99
2019-02-17T04:17:51.089Z,99.99
2019-02-17T04:19:01.167Z,99.99
2019-02-17T04:20:11.084Z,99.99
2019-02-17T04:21:21.118Z,99.99
2019-02-17T04:22:31.042Z,99.99
2019-02-17T04:23:40.992Z,99.99
2019-02-17T04:24:51.041Z,99.99
2019-02-17T04:26:00.981Z,99.99
2019-02-17T04:27:10.918Z,99.99
2019-02-17T04:28:20.594Z,99.99
2019-02-17T04:29:30.519Z,99.99
2019-02-17T04:30:40.530Z,99.99
2019-02-17T04:31:50.644Z,99.99
2019-02-17T04:33:00.586Z,99.99
2019-02-17T04:34:10.521Z,99.99
2019-02-17T04:35:20.460Z,99.99
2019-02-17T04:36:30.430Z,99.99
2019-02-17T04:37:40.383Z,99.99
2019-02-17T04:38:50.310Z,99.99
2019-02-17T04:40:00.382Z,99.99
2019-02-17T04:41:10.358Z,99.99
2019-02-17T04:42:20.399Z,99.99
2019-02-17T04:43:30.323Z,99.99
2019-02-17T04:44:40.247Z,99.99
2019-02-17T04:45:50.166Z,99.99
2019-02-17T04:47:00.141Z,99.99
2019-02-17T04:48:10.164Z,99.99
2019-02-17T04:49:20.083Z,99.99
2019-02-17T04:50:30.064Z,99.99
2019-02-17T04:51:40.005Z,99.99
2019-02-17T04:52:49.927Z,99.99
2019-02-17T04:53:59.855Z,99.99
2019-02-17T04:55:09.778Z,99.99
2019-02-17T04:56:19.704Z,99.99
2019-02-17T04:57:29.622Z,99.99
2019-02-17T04:58:39.548Z,99.99
2019-02-17T04:59:49.474Z,99.99
2019-02-17T05:00:59.412Z,99.99
2019-02-17T05:02:09.252Z,99.99
2019-02-17T05:03:19.182Z,99.99
2019-02-17T05:04:29.233Z,99.99
2019-02-17T05:05:39.257Z,99.99
2019-02-17T05:06:49.200Z,99.99
2019-02-17T05:07:59.150Z,99.99
2019-02-17T05:09:09.118Z,99.99
2019-02-17T05:10:19.051Z,99.99
2019-02-17T05:11:29.083Z,99.99
2019-02-17T05:12:39.009Z,99.99
2019-02-17T05:13:48.939Z,99.99
2019-02-17T05:14:58.871Z,99.99
2019-02-17T05:16:08.554Z,99.99
2019-02-17T05:17:18.601Z,99.99
2019-02-17T05:18:28.525Z,99.99
2019-02-17T05:19:38.460Z,99.99
2019-02-17T05:20:48.150Z,99.99
2019-02-17T05:21:58.083Z,99.99
2019-02-17T05:23:08.013Z,99.99
2019-02-17T05:24:17.941Z,99.99
2019-02-17T05:25:27.871Z,99.99
2019-02-17T05:26:37.808Z,99.99
2019-02-17T05:27:47.477Z,99.99
2019-02-17T05:28:59.064Z,99.99
2019-02-17T05:30:09.117Z,99.99
2019-02-17T05:31:19.068Z,99.99
2019-02-17T05:32:28.997Z,99.99
2019-02-17T05:33:38.917Z,99.99
2019-02-17T05:34:48.841Z,99.99
2019-02-17T05:35:58.762Z,99.99
2019-02-17T05:37:08.688Z,99.99
2019-02-17T05:38:18.625Z,99.99
2019-02-17T05:39:28.549Z,99.99
2019-02-17T05:40:39.200Z,99.99
2019-02-17T05:41:49.128Z,99.99
2019-02-17T05:42:59.058Z,99.99
2019-02-17T05:44:09.010Z,99.99
2019-02-17T05:45:18.949Z,99.99
2019-02-17T05:46:28.968Z,99.99
2019-02-17T05:47:38.892Z,99.99
2019-02-17T05:48:48.815Z,99.99
2019-02-17T05:49:58.762Z,99.99
2019-02-17T05:51:08.746Z,99.99
2019-02-17T05:52:18.782Z,99.99
2019-02-17T05:53:28.725Z,99.99
2019-02-17T05:54:38.649Z,99.99
2019-02-17T05:55:48.597Z,99.99
2019-02-17T05:56:58.526Z,99.99
2019-02-17T05:58:08.553Z,99.99
2019-02-17T05:59:18.471Z,99.99
2019-02-17T06:00:28.404Z,99.99
2019-02-17T06:01:38.334Z,99.99
2019-02-17T06:02:48.266Z,99.99
2019-02-17T06:03:58.295Z,99.99
2019-02-17T06:05:07.981Z,99.99
2019-02-17T06:06:17.917Z,99.99
2019-02-17T06:07:27.840Z,99.99
2019-02-17T06:08:37.774Z,99.99
2019-02-17T06:09:47.792Z,99.99
2019-02-17T06:10:57.718Z,99.99
2019-02-17T06:12:07.658Z,99.99
2019-02-17T06:13:17.585Z,99.99
2019-02-17T06:14:27.550Z,99.99
2019-02-17T06:15:37.544Z,99.99
2019-02-17T06:16:47.488Z,99.99
2019-02-17T06:17:57.413Z,99.99
2019-02-17T06:19:07.334Z,99.99
2019-02-17T06:20:17.290Z,99.99
2019-02-17T06:21:27.221Z,99.99
2019-02-17T06:22:37.139Z,99.99
2019-02-17T06:23:47.072Z,99.99
2019-02-17T06:24:56.997Z,99.99
2019-02-17T06:26:06.934Z,99.99
2019-02-17T06:27:16.610Z,99.99
2019-02-17T06:28:26.531Z,99.99
2019-02-17T06:29:36.454Z,99.99
2019-02-17T06:30:46.389Z,99.99
2019-02-17T06:31:56.060Z,99.99
2019-02-17T06:33:06.076Z,99.99
2019-02-17T06:34:16.000Z,99.99
2019-02-17T06:35:25.925Z,99.99
2019-02-17T06:36:35.853Z,99.99
2019-02-17T06:37:48.504Z,99.99
2019-02-17T06:38:58.478Z,99.99
2019-02-17T06:40:08.398Z,99.99
2019-02-17T06:41:18.318Z,99.99
2019-02-17T06:42:28.262Z,99.99
2019-02-17T06:43:38.193Z,99.99
2019-02-17T06:44:48.218Z,99.99
2019-02-17T06:45:58.144Z,99.99
2019-02-17T06:47:08.084Z,99.99
2019-02-17T06:48:18.011Z,99.99
2019-02-17T06:49:27.925Z,99.99
2019-02-17T06:50:37.894Z,99.99
2019-02-17T06:51:47.906Z,99.99
2019-02-17T06:52:57.831Z,99.99
2019-02-17T06:54:07.754Z,99.99
2019-02-17T06:55:17.668Z,99.99
2019-02-17T06:56:27.609Z,99.99
2019-02-17T06:57:37.527Z,99.99
2019-02-17T06:58:47.447Z,99.99
2019-02-17T06:59:57.361Z,99.99
2019-02-17T07:01:07.288Z,99.99
2019-02-17T07:02:27.196Z,99.99
2019-02-17T07:03:37.165Z,99.99
2019-02-17T07:04:47.329Z,99.99
2019-02-17T07:05:59.134Z,99.99
2019-02-17T07:07:09.192Z,99.99
2019-02-17T07:08:19.199Z,99.99
2019-02-17T07:09:29.218Z,99.99
2019-02-17T07:10:38.889Z,99.99
2019-02-17T07:11:48.810Z,99.99
2019-02-17T07:12:59.825Z,99.99
2019-02-17T07:14:09.752Z,99.99
2019-02-17T07:15:19.416Z,99.99
2019-02-17T07:16:29.351Z,99.99
2019-02-17T07:17:39.273Z,99.99
2019-02-17T07:18:49.236Z,99.99
2019-02-17T07:19:59.257Z,99.99
2019-02-17T07:21:09.175Z,99.99
2019-02-17T07:22:19.098Z,99.99
2019-02-17T07:23:29.029Z,99.99
2019-02-17T07:24:38.965Z,99.99
2019-02-17T07:25:48.684Z,99.99
2019-02-17T07:26:58.609Z,99.99
2019-02-17T07:28:08.536Z,99.99
2019-02-17T07:29:19.321Z,99.99
2019-02-17T07:30:29.243Z,99.99
2019-02-17T07:31:39.274Z,99.99
2019-02-17T07:32:49.192Z,99.99
2019-02-17T07:33:59.121Z,99.99
2019-02-17T07:35:09.061Z,99.99
2019-02-17T07:36:18.990Z,99.99
2019-02-17T07:37:36.116Z,99.99
2019-02-17T07:38:46.056Z,99.99
2019-02-17T07:39:55.978Z,99.99
2019-02-17T07:41:05.901Z,99.99
2019-02-17T07:42:15.838Z,99.99
2019-02-17T07:43:25.764Z,99.99
2019-02-17T07:44:35.686Z,99.99
2019-02-17T07:45:48.012Z,99.99
2019-02-17T07:46:57.928Z,99.99
2019-02-17T07:48:07.853Z,99.99
2019-02-17T07:49:17.870Z,99.99
2019-02-17T07:50:27.794Z,99.99
2019-02-17T07:51:37.714Z,99.99
2019-02-17T07:52:47.652Z,99.99
2019-02-17T07:53:57.573Z,99.99
2019-02-17T07:55:07.591Z,99.99
2019-02-17T07:56:17.505Z,99.99
2019-02-17T07:57:27.424Z,99.99
2019-02-17T07:58:37.340Z,99.99
2019-02-17T07:59:47.262Z,99.99
2019-02-17T08:00:57.183Z,99.99
2019-02-17T08:02:07.115Z,99.99
2019-02-17T08:03:16.809Z,99.99
2019-02-17T08:04:26.727Z,99.99
2019-02-17T08:05:36.715Z,99.99
2019-02-17T08:06:46.681Z,99.99
2019-02-17T08:07:56.614Z,99.99
2019-02-17T08:09:06.527Z,99.99
2019-02-17T08:10:16.443Z,99.99
2019-02-17T08:11:26.120Z,99.99
2019-02-17T08:12:36.137Z,99.99
2019-02-17T08:13:46.055Z,99.99
2019-02-17T08:14:55.976Z,99.99
2019-02-17T08:16:05.899Z,99.99
2019-02-17T08:17:15.847Z,99.99
2019-02-17T08:18:25.872Z,99.99
2019-02-17T08:19:35.795Z,99.99
2019-02-17T08:20:45.718Z,99.99
2019-02-17T08:21:55.638Z,99.99
2019-02-17T08:23:05.555Z,99.99
2019-02-17T08:24:15.574Z,99.99
2019-02-17T08:25:25.495Z,99.99
2019-02-17T08:26:35.434Z,99.99
2019-02-17T08:27:45.364Z,99.99
2019-02-17T08:28:55.293Z,99.99
2019-02-17T08:30:05.269Z,99.99
2019-02-17T08:31:14.941Z,99.99
2019-02-17T08:32:24.856Z,99.99
2019-02-17T08:33:34.776Z,99.99
2019-02-17T08:34:44.691Z,99.99
2019-02-17T08:35:56.230Z,99.99
2019-02-17T08:37:06.152Z,99.99
2019-02-17T08:38:16.071Z,99.99
2019-02-17T08:39:26.019Z,99.99
2019-02-17T08:40:35.949Z,99.99
2019-02-17T08:41:45.924Z,99.99
2019-02-17T08:42:55.848Z,99.99
2019-02-17T08:44:05.786Z,99.99
2019-02-17T08:45:15.743Z,99.99
2019-02-17T08:46:25.658Z,99.99
2019-02-17T08:47:35.632Z,99.99
2019-02-17T08:48:45.619Z,99.99
2019-02-17T08:49:55.604Z,99.99
2019-02-17T08:51:05.561Z,99.99
2019-02-17T08:52:15.489Z,99.99
2019-02-17T08:53:25.511Z,99.99
2019-02-17T08:54:35.431Z,99.99
2019-02-17T08:55:45.346Z,99.99
2019-02-17T08:56:55.274Z,99.99
2019-02-17T08:58:05.215Z,99.99
2019-02-17T08:59:15.235Z,99.99
2019-02-17T09:00:25.161Z,99.99
2019-02-17T09:01:35.078Z,99.99
2019-02-17T09:02:45.738Z,99.99
2019-02-17T09:03:55.705Z,99.99
2019-02-17T09:05:05.730Z,99.99
2019-02-17T09:06:15.655Z,99.99
2019-02-17T09:07:25.583Z,99.99
2019-02-17T09:08:35.507Z,99.99
2019-02-17T09:09:45.496Z,99.99
2019-02-17T09:10:55.471Z,99.99
2019-02-17T09:12:05.389Z,99.99
2019-02-17T09:13:15.311Z,99.99
2019-02-17T09:14:26.258Z,99.99
2019-02-17T09:15:36.212Z,99.99
2019-02-17T09:16:46.180Z,99.99
2019-02-17T09:17:56.109Z,99.99
2019-02-17T09:19:06.027Z,99.99
2019-02-17T09:20:15.946Z,99.99
2019-02-17T09:21:25.866Z,99.99
2019-02-17T09:22:35.588Z,99.99
2019-02-17T09:23:45.519Z,99.99
2019-02-17T09:24:55.442Z,99.99
2019-02-17T09:26:05.549Z,99.99
2019-02-17T09:27:15.032Z,99.99
2019-02-17T09:28:25.013Z,99.99
2019-02-17T09:29:34.932Z,99.99
2019-02-17T09:30:44.850Z,99.99
2019-02-17T09:31:54.772Z,99.99
2019-02-17T09:33:06.924Z,99.99
2019-02-17T09:34:16.845Z,99.99
2019-02-17T09:35:26.766Z,99.99
2019-02-17T09:36:36.696Z,99.99
2019-02-17T09:37:46.618Z,99.99
2019-02-17T09:38:56.553Z,99.99
2019-02-17T09:40:06.482Z,99.99
2019-02-17T09:41:16.404Z,99.99
2019-02-17T09:42:26.326Z,99.99
2019-02-17T09:43:36.242Z,99.99
2019-02-17T09:44:48.495Z,99.99
2019-02-17T09:45:58.414Z,99.99
2019-02-17T09:47:08.339Z,99.99
2019-02-17T09:48:18.256Z,99.99
2019-02-17T09:49:28.183Z,99.99
2019-02-17T09:50:38.105Z,99.99
2019-02-17T09:51:48.039Z,99.99
2019-02-17T09:52:57.960Z,99.99
2019-02-17T09:54:07.884Z,99.99
2019-02-17T09:55:17.845Z,99.99
2019-02-17T09:56:27.775Z,99.99
2019-02-17T09:57:37.795Z,99.99
2019-02-17T09:58:47.737Z,99.99
2019-02-17T09:59:57.651Z,99.99
2019-02-17T10:01:07.583Z,99.99
2019-02-17T10:02:26.182Z,99.99
2019-02-17T10:03:36.655Z,99.99
2019-02-17T10:04:46.580Z,99.99
2019-02-17T10:05:56.512Z,99.99
2019-02-17T10:07:06.430Z,99.99
2019-02-17T10:08:16.347Z,99.99
2019-02-17T10:09:26.322Z,99.99
2019-02-17T10:10:36.243Z,99.99
2019-02-17T10:11:46.167Z,99.99
2019-02-17T10:12:56.092Z,99.99
2019-02-17T10:14:06.630Z,99.99
2019-02-17T10:15:16.667Z,99.99
2019-02-17T10:16:26.599Z,99.99
2019-02-17T10:17:36.517Z,99.99
2019-02-17T10:18:46.460Z,99.99
2019-02-17T10:19:56.382Z,99.99
2019-02-17T10:21:06.400Z,99.99
2019-02-17T10:22:16.071Z,99.99
2019-02-17T10:23:25.998Z,99.99
2019-02-17T10:24:35.920Z,99.99
2019-02-17T10:25:45.846Z,99.99
2019-02-17T10:26:55.778Z,99.99
2019-02-17T10:28:05.706Z,99.99
2019-02-17T10:29:15.640Z,99.99
2019-02-17T10:30:25.561Z,99.99
2019-02-17T10:31:35.479Z,99.99
2019-02-17T10:32:45.457Z,99.99
2019-02-17T10:33:55.388Z,99.99
2019-02-17T10:35:05.314Z,99.99
2019-02-17T10:36:15.240Z,99.99
2019-02-17T10:37:25.167Z,99.99
2019-02-17T10:38:35.192Z,99.99
2019-02-17T10:39:45.147Z,99.99
2019-02-17T10:40:55.067Z,99.99
2019-02-17T10:42:04.994Z,99.99
2019-02-17T10:43:14.922Z,99.99
2019-02-17T10:44:24.960Z,99.99
2019-02-17T10:45:34.884Z,99.99
2019-02-17T10:46:44.805Z,99.99
2019-02-17T10:47:54.737Z,99.99
2019-02-17T10:49:04.664Z,99.99
2019-02-17T10:50:14.749Z,99.99
2019-02-17T10:51:26.412Z,99.99
2019-02-17T10:52:36.532Z,99.99
2019-02-17T10:53:46.453Z,99.99
2019-02-17T10:54:56.386Z,99.99
2019-02-17T10:56:06.367Z,99.99
2019-02-17T10:57:16.293Z,99.99
2019-02-17T10:58:26.220Z,99.99
2019-02-17T10:59:36.138Z,99.99
2019-02-17T11:00:46.063Z,99.99
2019-02-17T11:01:56.086Z,99.99
2019-02-17T11:03:06.012Z,99.99
2019-02-17T11:04:15.941Z,99.99
2019-02-17T11:05:25.862Z,99.99
2019-02-17T11:06:35.785Z,99.99
2019-02-17T11:07:45.761Z,99.99
2019-02-17T11:08:55.744Z,99.99
2019-02-17T11:10:05.667Z,99.99
2019-02-17T11:11:15.593Z,99.99
2019-02-17T11:12:26.092Z,99.99
2019-02-17T11:13:35.818Z,99.99
2019-02-17T11:14:45.746Z,99.99
2019-02-17T11:15:55.669Z,99.99
2019-02-17T11:17:05.592Z,99.99
2019-02-17T11:18:15.530Z,99.99
2019-02-17T11:19:25.556Z,99.99
2019-02-17T11:20:35.515Z,99.99
2019-02-17T11:21:45.452Z,99.99
2019-02-17T11:22:55.588Z,99.99
2019-02-17T11:24:05.508Z,99.99
2019-02-17T11:25:15.531Z,99.99
2019-02-17T11:26:25.469Z,99.99
2019-02-17T11:27:35.419Z,99.99
2019-02-17T11:28:45.344Z,99.99
2019-02-17T11:29:55.553Z,99.99
2019-02-17T11:31:05.593Z,99.99
2019-02-17T11:32:15.515Z,99.99
2019-02-17T11:33:25.436Z,99.99
2019-02-17T11:34:35.359Z,99.99
2019-02-17T11:35:45.291Z,99.99
2019-02-17T11:36:55.336Z,99.99
2019-02-17T11:38:05.266Z,99.99
2019-02-17T11:39:15.189Z,99.99
2019-02-17T11:40:25.120Z,99.99
2019-02-17T11:41:35.053Z,99.99
2019-02-17T11:42:45.026Z,99.99
2019-02-17T11:43:54.944Z,99.99
2019-02-17T11:45:04.867Z,99.99
2019-02-17T11:46:14.811Z,99.99
2019-02-17T11:47:24.789Z,99.99
2019-02-17T11:48:34.810Z,99.99
2019-02-17T11:49:44.741Z,99.99
2019-02-17T11:50:54.669Z,99.99
2019-02-17T11:52:04.592Z,99.99
2019-02-17T11:53:14.525Z,99.99
2019-02-17T11:54:24.549Z,99.99
2019-02-17T11:55:34.476Z,99.99
2019-02-17T11:56:44.399Z,99.99
2019-02-17T11:57:54.349Z,99.99
2019-02-17T11:59:04.283Z,99.99
2019-02-17T12:00:14.270Z,99.99
2019-02-17T12:01:24.193Z,99.99
2019-02-17T12:02:34.125Z,99.99
2019-02-17T12:03:44.070Z,99.99
2019-02-17T12:04:53.994Z,99.86
2019-02-17T12:06:03.970Z,99.29
2019-02-17T12:07:13.917Z,99.39
2019-02-17T12:08:23.838Z,98.63
2019-02-17T12:09:33.767Z,97.11
2019-02-17T12:10:43.444Z,97.97
2019-02-17T12:11:53.468Z,97.78
2019-02-17T12:13:03.391Z,98.82
2019-02-17T12:14:13.315Z,98.68
2019-02-17T12:15:23.271Z,97.35
2019-02-17T12:16:39.656Z,97.35
2019-02-17T12:17:49.679Z,96.69
2019-02-17T12:19:02.060Z,95.74
2019-02-17T12:20:11.983Z,95.69
2019-02-17T12:21:21.907Z,95.88
2019-02-17T12:22:31.828Z,96.36
2019-02-17T12:23:41.801Z,97.54
2019-02-17T12:24:51.721Z,97.73
2019-02-17T12:26:01.643Z,98.3
2019-02-17T12:27:11.568Z,98.68
2019-02-17T12:28:21.492Z,98.96
2019-02-17T12:29:31.521Z,98.3
2019-02-17T12:30:43.299Z,98.86
2019-02-17T12:31:53.221Z,98.39
2019-02-17T12:33:05.387Z,98.35
2019-02-17T12:34:27.216Z,97.87
2019-02-17T12:35:37.258Z,98.06
2019-02-17T12:36:47.188Z,97.68
2019-02-17T12:37:57.127Z,97.4
2019-02-17T12:39:07.067Z,97.3
2019-02-17T12:40:18.098Z,97.49
2019-02-17T12:41:28.031Z,97.45
2019-02-17T12:42:37.953Z,97.07
2019-02-17T12:43:47.997Z,95.07
2019-02-17T12:44:59.590Z,95.26
2019-02-17T12:46:09.625Z,94.6
2019-02-17T12:47:19.550Z,94.6
2019-02-17T12:48:29.495Z,95.36
2019-02-17T12:49:39.416Z,95.55
2019-02-17T12:50:49.503Z,95.22
2019-02-17T12:51:59.568Z,94.46
2019-02-17T12:53:09.496Z,94.37
2019-02-17T12:54:28.567Z,93.7
2019-02-17T12:55:38.734Z,92.61
2019-02-17T12:56:48.661Z,92.18
2019-02-17T12:57:58.709Z,91.19
2019-02-17T12:59:08.656Z,89.95
2019-02-17T13:00:18.590Z,89.19
2019-02-17T13:01:28.517Z,88.05
2019-02-17T13:02:38.454Z,87.67
2019-02-17T13:03:48.484Z,87.38
2019-02-17T13:04:58.410Z,87.76
2019-02-17T13:06:08.407Z,87.19
2019-02-17T13:07:18.378Z,87.15
2019-02-17T13:08:28.317Z,87.57
2019-02-17T13:09:38.265Z,87.24
2019-02-17T13:10:48.190Z,86.63
2019-02-17T13:11:57.882Z,86.43
2019-02-17T13:13:07.825Z,85.68
2019-02-17T13:14:17.761Z,86.72
2019-02-17T13:15:27.784Z,87.01
2019-02-17T13:16:37.462Z,87.1
2019-02-17T13:17:47.387Z,85.77
2019-02-17T13:18:58.036Z,86.53
2019-02-17T13:20:07.958Z,86.34
2019-02-17T13:21:17.992Z,86.34
2019-02-17T13:22:27.668Z,85.68
2019-02-17T13:23:37.592Z,85.96
2019-02-17T13:24:47.516Z,86.53
2019-02-17T13:25:57.439Z,86.24
2019-02-17T13:27:07.464Z,86.53
2019-02-17T13:28:17.390Z,86.63
2019-02-17T13:29:27.322Z,85.39
2019-02-17T13:30:37.255Z,85.58
2019-02-17T13:31:47.189Z,85.96
2019-02-17T13:32:57.170Z,86.24
2019-02-17T13:34:07.093Z,85.86
2019-02-17T13:35:17.032Z,85.2
2019-02-17T13:36:26.965Z,85.3
2019-02-17T13:37:36.890Z,82.73
2019-02-17T13:38:46.926Z,82.35
2019-02-17T13:39:56.860Z,83.26
2019-02-17T13:41:06.793Z,83.64
2019-02-17T13:42:16.721Z,84.55
2019-02-17T13:43:26.646Z,84.83
2019-02-17T13:44:36.574Z,85.87
2019-02-17T13:45:47.355Z,85.68
2019-02-17T13:46:57.285Z,86.54
2019-02-17T13:48:07.217Z,86.87
2019-02-17T13:49:17.236Z,87.45
2019-02-17T13:50:27.209Z,87.82
2019-02-17T13:51:37.132Z,88.01
2019-02-17T13:52:47.066Z,87.82
2019-02-17T13:53:57.006Z,88.35
2019-02-17T13:55:06.944Z,88.01
2019-02-17T13:56:16.981Z,89.01
2019-02-17T13:57:26.907Z,88.29
2019-02-17T13:58:36.846Z,88.48
2019-02-17T13:59:46.781Z,88.58
2019-02-17T14:00:56.705Z,88.68
2019-02-17T14:02:06.734Z,88.39
2019-02-17T14:03:16.657Z,88.92
2019-02-17T14:04:26.592Z,90.43
2019-02-17T14:05:36.532Z,90.43
2019-02-17T14:06:46.459Z,90.48
2019-02-17T14:07:56.436Z,89.43
2019-02-17T14:09:06.372Z,88.77
2019-02-17T14:10:16.058Z,88.92
2019-02-17T14:11:25.989Z,89.58
2019-02-17T14:12:35.907Z,89.01
2019-02-17T14:13:46.006Z,89.11
2019-02-17T14:14:55.936Z,90.05
2019-02-17T14:16:05.871Z,89.96
2019-02-17T14:17:15.801Z,90.91
2019-02-17T14:18:25.725Z,90.43
2019-02-17T14:19:35.753Z,90.43
2019-02-17T14:20:45.684Z,90.53
2019-02-17T14:21:55.609Z,91.62
2019-02-17T14:23:05.541Z,92.09
2019-02-17T14:24:15.482Z,92.85
2019-02-17T14:25:25.412Z,93.61
2019-02-17T14:26:35.338Z,94.46
2019-02-17T14:27:45.271Z,94.93
2019-02-17T14:28:55.196Z,94.65
2019-02-17T14:30:05.117Z,94.93
2019-02-17T14:31:15.099Z,94.98
2019-02-17T14:32:25.030Z,94.42
2019-02-17T14:33:34.958Z,94.89
2019-02-17T14:34:44.877Z,95.17
2019-02-17T14:35:54.798Z,95.17
2019-02-17T14:37:04.776Z,95.36
2019-02-17T14:38:16.239Z,95.64
2019-02-17T14:39:26.160Z,96.88
2019-02-17T14:40:36.114Z,96.78
2019-02-17T14:41:46.037Z,96.02
2019-02-17T14:42:57.885Z,95.64
2019-02-17T14:44:07.813Z,96.21
2019-02-17T14:45:17.739Z,96.17
2019-02-17T14:46:27.676Z,96.26
2019-02-17T14:47:37.602Z,96.73
2019-02-17T14:48:47.572Z,96.64
2019-02-17T14:49:57.504Z,96.36
2019-02-17T14:51:07.429Z,96.92
2019-02-17T14:52:17.098Z,96.45
2019-02-17T14:53:27.028Z,96.26
2019-02-17T14:54:37.053Z,96.26
2019-02-17T14:55:46.980Z,95.79
2019-02-17T14:56:56.900Z,95.5
2019-02-17T14:58:08.210Z,95.12
2019-02-17T14:59:18.145Z,95.22
2019-02-17T15:00:28.141Z,95.6
2019-02-17T15:01:38.090Z,94.93
2019-02-17T15:02:49.757Z,94.84
2019-02-17T15:04:08.255Z,95.22